Time;durP1;ratioP1;P1;durP2;ratioP2;P2;SDS_P1;SDS_P2;PMS_P1;PMS_P2;Temp;Humidity;BMP_temperature;BMP_pressure;BME280_temperature;BME280_humidity;BME280_pressure;Samples;Min_cycle;Max_cycle;Signal;HPM_P1;HPM_P2
2023/02/05 00:01:08;;;;;;;34.50;17.58;;;;;;;-143.48;96.73;118439.88;5075788;28;20118;-68
2023/02/05 00:03:35;;;;;;;43.05;18.48;;;;;;;-143.48;97.10;118439.88;5057754;28;20021;-68
2023/02/05 00:06:00;;;;;;;42.40;18.50;;;;;;;-143.48;97.40;118439.88;5075782;28;20024;-68
2023/02/05 00:08:26;;;;;;;41.08;18.20;;;;;;;-143.48;96.78;118439.88;5075644;28;20459;-68
2023/02/05 00:10:52;;;;;;;36.58;18.40;;;;;;;-143.48;97.15;118439.88;5058929;28;20020;-67
2023/02/05 00:13:18;;;;;;;35.75;17.23;;;;;;;-143.48;97.40;118439.88;5075173;28;20025;-68
2023/02/05 00:15:44;;;;;;;36.45;17.58;;;;;;;-143.48;97.21;118439.88;5077844;28;20081;-69
2023/02/05 00:18:09;;;;;;;36.50;17.42;;;;;;;-143.48;97.29;118439.88;5076804;28;20357;-68
2023/02/05 00:20:35;;;;;;;39.33;17.50;;;;;;;-143.48;96.95;118439.88;5077936;28;20028;-68
2023/02/05 00:23:00;;;;;;;40.22;19.40;;;;;;;-143.48;97.41;118439.88;5075281;28;20025;-68
2023/02/05 00:25:26;;;;;;;39.65;18.13;;;;;;;-143.48;97.68;118439.88;5076308;28;20089;-68
2023/02/05 00:27:51;;;;;;;40.80;18.45;;;;;;;-143.48;97.73;118439.88;5057896;28;20026;-68
2023/02/05 00:30:16;;;;;;;38.78;17.98;;;;;;;-143.48;97.73;118439.88;5075724;28;20433;-68
2023/02/05 00:32:42;;;;;;;43.13;18.25;;;;;;;-143.48;97.99;118439.88;5075570;28;20029;-68
2023/02/05 00:35:07;;;;;;;36.42;17.70;;;;;;;-143.48;97.54;118439.88;5073643;28;20112;-68
2023/02/05 00:37:32;;;;;;;42.05;18.02;;;;;;;-143.48;98.36;118439.88;5076849;28;20108;-68
2023/02/05 00:39:58;;;;;;;34.40;17.02;;;;;;;-143.48;98.27;118439.88;5056075;28;20021;-67
2023/02/05 00:42:24;;;;;;;37.72;17.67;;;;;;;-143.48;98.27;118439.88;5074797;28;20024;-68
2023/02/05 00:44:49;;;;;;;40.63;17.92;;;;;;;-143.48;97.82;118439.88;5075206;28;20032;-69
2023/02/05 00:47:14;;;;;;;37.63;17.30;;;;;;;-143.48;97.51;118439.88;5074447;28;20123;-69
2023/02/05 00:49:39;;;;;;;33.90;17.70;;;;;;;-143.48;97.92;118439.88;5075396;28;20111;-68
2023/02/05 00:52:05;;;;;;;37.55;17.67;;;;;;;-143.48;97.47;118439.88;5074876;28;20127;-68
2023/02/05 00:54:30;;;;;;;40.63;17.67;;;;;;;-143.48;97.15;118439.88;5075114;28;20021;-68
2023/02/05 00:56:55;;;;;;;38.58;17.40;;;;;;;-143.48;97.52;118439.88;5075247;28;20108;-68
2023/02/05 00:59:21;;;;;;;38.05;18.30;;;;;;;-143.48;97.78;118439.88;5056770;28;20024;-68
2023/02/05 01:01:47;;;;;;;40.75;17.88;;;;;;;-143.48;97.85;118439.88;5056745;28;20024;-68
2023/02/05 01:04:13;;;;;;;44.38;17.40;;;;;;;-143.48;98.12;118439.88;5074477;28;20059;-68
2023/02/05 01:06:38;;;;;;;34.83;17.25;;;;;;;-143.48;97.92;118439.88;5056470;28;20092;-68
2023/02/05 01:09:03;;;;;;;35.35;17.50;;;;;;;-143.48;97.71;118439.88;5074359;28;20032;-68
2023/02/05 01:11:29;;;;;;;37.60;17.85;;;;;;;-143.48;97.92;118439.88;5074250;28;20044;-69
2023/02/05 01:13:54;;;;;;;32.38;16.75;;;;;;;-143.48;97.50;118439.88;5055920;28;20494;-67
2023/02/05 01:16:19;;;;;;;35.53;16.65;;;;;;;-143.48;97.38;118439.88;5073268;28;20029;-68
2023/02/05 01:18:45;;;;;;;35.10;16.95;;;;;;;-143.48;97.54;118439.88;5073881;28;20099;-68
2023/02/05 01:21:10;;;;;;;38.03;17.95;;;;;;;-143.48;97.46;118439.88;5072936;28;20052;-68
2023/02/05 01:23:36;;;;;;;36.28;17.67;;;;;;;-143.48;97.83;118439.88;5053960;28;20072;-67
2023/02/05 01:26:01;;;;;;;38.40;18.23;;;;;;;-143.48;97.72;118439.88;5071609;28;20024;-68
2023/02/05 01:28:26;;;;;;;32.78;16.60;;;;;;;-143.48;97.58;118439.88;5054125;28;20020;-68
2023/02/05 01:30:52;;;;;;;32.38;17.13;;;;;;;-143.48;97.85;118439.88;5071981;28;20027;-68
2023/02/05 01:33:18;;;;;;;34.00;16.52;;;;;;;-143.48;97.48;118439.88;5054232;28;20016;-68
2023/02/05 01:35:44;;;;;;;37.35;16.95;;;;;;;-143.48;98.08;118439.88;5054943;28;20024;-67
2023/02/05 01:38:13;;;;;;;36.35;17.02;;;;;;;-143.48;97.83;118439.88;5055880;28;20020;-68
2023/02/05 01:40:38;;;;;;;30.65;15.93;;;;;;;-143.48;98.34;118439.88;5073623;28;20032;-68
2023/02/05 01:43:10;;;;;;;36.30;16.70;;;;;;;-143.48;98.09;118439.88;5073812;28;20039;-67
2023/02/05 01:46:05;;;;;;;33.78;15.85;;;;;;;-143.48;97.68;118439.88;5055768;28;20547;-67
2023/02/05 01:48:42;;;;;;;36.28;16.05;;;;;;;-143.48;97.60;118439.88;5055872;28;20386;-68
2023/02/05 01:51:11;;;;;;;34.58;15.77;;;;;;;-143.48;97.63;118439.88;5055773;28;20464;-67
2023/02/05 01:53:40;;;;;;;35.85;14.85;;;;;;;-143.48;97.52;118439.88;5073440;28;20156;-68
2023/02/05 01:56:13;;;;;;;29.65;15.20;;;;;;;-143.48;97.06;118439.88;5055589;28;20028;-68
2023/02/05 01:58:41;;;;;;;;;;;;;;;-143.48;97.04;118439.88;5056078;28;20029;-68
2023/02/05 02:01:07;;;;;;;31.33;13.93;;;;;;;-143.48;96.86;118439.88;5055778;28;19922;-72
2023/02/05 02:03:32;;;;;;;33.58;13.70;;;;;;;-143.48;96.36;118439.88;5074575;28;20076;-72
2023/02/05 02:05:58;;;;;;;29.63;13.50;;;;;;;-143.48;96.27;118439.88;5054475;28;20508;-71
2023/02/05 02:08:23;;;;;;;27.77;13.40;;;;;;;-143.48;96.06;118439.88;5071860;28;20043;-72
2023/02/05 02:10:52;;;;;;;30.77;13.90;;;;;;;-143.48;95.72;118439.88;5071845;28;20426;-72
2023/02/05 02:13:21;;;;;;;25.65;12.35;;;;;;;-143.48;95.50;118439.88;5072051;28;20047;-73
2023/02/05 02:15:48;;;;;;;30.15;13.40;;;;;;;-143.48;95.10;118439.88;5054996;28;20586;-72
2023/02/05 02:18:26;;;;;;;23.33;12.20;;;;;;;-143.48;94.27;118439.88;5055887;28;20021;-72
2023/02/05 02:20:58;;;;;;;28.60;12.85;;;;;;;-143.48;94.57;118439.88;5058054;28;20116;-73
2023/02/05 02:23:31;;;;;;;29.02;11.93;;;;;;;-143.48;94.57;118439.88;5076361;28;20020;-72
2023/02/05 02:26:09;;;;;;;26.90;12.30;;;;;;;-143.48;94.20;118439.88;5077010;28;20028;-72
2023/02/05 02:28:44;;;;;;;27.23;10.75;;;;;;;-143.48;93.56;118439.88;5056437;28;20027;-72
2023/02/05 02:31:29;;;;;;;23.63;11.30;;;;;;;-143.48;93.53;118439.88;5055793;28;20024;-72
2023/02/05 02:34:07;;;;;;;23.52;11.43;;;;;;;-143.48;93.40;118439.88;5073570;28;20039;-72
2023/02/05 02:37:05;;;;;;;22.48;10.60;;;;;;;-143.48;93.62;118439.88;5075293;28;20016;-72
2023/02/05 02:39:49;;;;;;;21.48;10.23;;;;;;;-143.48;93.74;118439.88;5077193;28;20387;-72
2023/02/05 02:42:26;;;;;;;23.63;10.70;;;;;;;-143.48;93.74;118439.88;5077268;28;20025;-73
2023/02/05 02:44:57;;;;;;;21.77;10.30;;;;;;;-143.48;93.36;118439.88;5077259;28;20468;-74
2023/02/05 02:47:30;;;;;;;21.98;9.98;;;;;;;-143.48;93.23;118439.88;5059235;28;20052;-72
2023/02/05 02:50:01;;;;;;;23.05;10.55;;;;;;;-143.48;94.51;118439.88;5077148;28;20062;-72
2023/02/05 02:52:31;;;;;;;22.27;10.50;;;;;;;-143.48;94.47;118439.88;5077337;28;20045;-72
2023/02/05 02:55:04;;;;;;;21.23;9.93;;;;;;;-143.48;94.29;118439.88;5058994;28;20024;-72
2023/02/05 02:57:29;;;;;;;26.92;9.52;;;;;;;-143.48;94.27;118439.88;5077197;28;20025;-73
2023/02/05 03:00:00;;;;;;;25.40;9.90;;;;;;;-143.48;93.45;118439.88;5076992;28;20086;-66
2023/02/05 03:02:30;;;;;;;22.58;9.55;;;;;;;-143.48;93.45;118439.88;5076731;28;20020;-65
2023/02/05 03:05:00;;;;;;;19.40;8.65;;;;;;;-143.48;93.26;118439.88;5076864;28;20499;-65
2023/02/05 03:07:30;;;;;;;17.63;8.27;;;;;;;-143.48;93.03;118439.88;5076687;28;20074;-65
2023/02/05 03:10:02;;;;;;;19.48;7.80;;;;;;;-143.48;92.69;118439.88;5076646;28;20035;-66
2023/02/05 03:12:28;;;;;;;18.10;8.02;;;;;;;-143.48;93.15;118439.88;5076540;28;20027;-66
2023/02/05 03:14:54;;;;;;;16.52;7.18;;;;;;;-143.48;92.82;118439.88;5076538;28;20028;-66
2023/02/05 03:17:20;;;;;;;18.08;6.90;;;;;;;-143.48;92.32;118439.88;5076625;28;20093;-65
2023/02/05 03:19:52;;;;;;;15.77;6.93;;;;;;;-143.48;92.25;118439.88;5076248;28;20021;-66
2023/02/05 03:22:17;;;;;;;14.57;7.07;;;;;;;-143.48;92.25;118439.88;5058446;28;20491;-65
2023/02/05 03:24:43;;;;;;;12.38;6.05;;;;;;;-143.48;92.24;118439.88;5076336;28;20029;-65
2023/02/05 03:27:08;;;;;;;17.48;6.15;;;;;;;-143.48;91.67;118439.88;5076228;28;20027;-66
2023/02/05 03:29:37;;;;;;;13.55;5.93;;;;;;;-143.48;92.50;118439.88;5076263;28;20021;-65
2023/02/05 03:32:25;;;;;;;16.25;5.90;;;;;;;-143.48;91.37;118439.88;5076169;28;20028;-66
2023/02/05 03:35:05;;;;;;;15.55;6.00;;;;;;;-143.48;91.18;118439.88;5076193;28;20365;-65
2023/02/05 03:37:47;;;;;;;12.63;5.60;;;;;;;-143.48;90.99;118439.88;5076105;28;20028;-65
2023/02/05 03:40:29;;;;;;;9.95;4.55;;;;;;;-143.48;90.92;118439.88;5075978;28;20364;-65
2023/02/05 03:43:15;;;;;;;13.80;5.20;;;;;;;-143.48;91.49;118439.88;5076126;28;20415;-66
2023/02/05 03:46:02;;;;;;;12.75;4.63;;;;;;;-143.48;91.40;118439.88;5076183;28;20162;-66
2023/02/05 03:48:40;;;;;;;11.18;4.50;;;;;;;-143.48;91.59;118439.88;5056928;28;20029;-65
2023/02/05 03:51:21;;;;;;;10.13;4.15;;;;;;;-143.48;92.43;118439.88;5058010;28;20055;-65
2023/02/05 03:54:02;;;;;;;12.40;5.20;;;;;;;-143.48;92.49;118439.88;5075725;28;20102;-66
2023/02/05 03:56:42;;;;;;;11.88;4.25;;;;;;;-143.48;93.36;118439.88;5075594;28;20522;-66
2023/02/05 03:59:08;;;;;;;11.98;4.53;;;;;;;-143.48;93.66;118439.88;5075582;28;20068;-65
2023/02/05 04:01:34;;;;;;;8.35;4.20;;;;;;;-143.48;94.15;118439.88;5074428;28;20028;-67
2023/02/05 04:03:59;;;;;;;15.05;5.07;;;;;;;-143.48;94.18;118439.88;5073806;28;20460;-66
2023/02/05 04:06:25;;;;;;;11.73;4.63;;;;;;;-143.48;95.07;118439.88;5073748;28;20028;-66
2023/02/05 04:08:50;;;;;;;10.38;4.40;;;;;;;-143.48;94.70;118439.88;5073654;28;20031;-66
2023/02/05 04:11:15;;;;;;;12.88;4.38;;;;;;;-143.48;95.07;118439.88;5055704;28;20093;-66
2023/02/05 04:13:41;;;;;;;15.57;4.88;;;;;;;-143.48;95.50;118439.88;5073490;28;20079;-66
2023/02/05 04:16:06;;;;;;;10.07;4.70;;;;;;;-143.48;95.55;118439.88;5055733;28;20059;-66
2023/02/05 04:18:31;;;;;;;13.32;4.65;;;;;;;-143.48;96.27;118439.88;5073562;28;20121;-66
2023/02/05 04:20:58;;;;;;;13.70;4.78;;;;;;;-143.48;96.53;118439.88;5075314;28;20070;-65
2023/02/05 04:23:24;;;;;;;20.02;5.50;;;;;;;-143.48;97.04;118439.88;5057370;28;20098;-65
2023/02/05 04:25:53;;;;;;;10.70;5.07;;;;;;;-143.48;97.37;118439.88;5075388;28;20492;-65
2023/02/05 04:28:19;;;;;;;11.50;4.80;;;;;;;-143.48;97.38;118439.88;5057232;28;20020;-65
2023/02/05 04:30:44;;;;;;;16.08;5.13;;;;;;;-143.48;97.62;118439.88;5075175;28;20095;-65
2023/02/05 04:33:10;;;;;;;9.80;5.00;;;;;;;-143.48;97.85;118439.88;5057237;28;20060;-65
2023/02/05 04:35:35;;;;;;;14.00;4.97;;;;;;;-143.48;98.62;118439.88;5075093;28;20024;-65
2023/02/05 04:38:01;;;;;;;12.50;4.72;;;;;;;-143.48;98.48;118439.88;5075158;28;20095;-65
2023/02/05 04:40:26;;;;;;;11.40;5.00;;;;;;;-143.48;99.17;118439.88;5074955;28;20467;-65
2023/02/05 04:42:51;;;;;;;10.30;4.55;;;;;;;-143.48;99.09;118439.88;5074978;28;20024;-65
2023/02/05 04:45:17;;;;;;;10.40;4.03;;;;;;;-143.48;99.21;118439.88;5056911;28;20374;-64
2023/02/05 04:47:42;;;;;;;8.15;4.18;;;;;;;-143.48;99.61;118439.88;5057001;28;20026;-65
2023/02/05 04:50:08;;;;;;;7.88;3.70;;;;;;;-143.48;99.29;118439.88;5075154;28;20028;-65
2023/02/05 04:52:33;;;;;;;10.25;3.78;;;;;;;-143.48;99.99;118439.88;5074748;28;20483;-64
2023/02/05 04:54:58;;;;;;;7.47;3.35;;;;;;;-143.48;99.76;118439.88;5074744;28;20379;-65
2023/02/05 04:57:24;;;;;;;5.72;2.97;;;;;;;-143.48;99.96;118439.88;5074612;28;20025;-65
2023/02/05 04:59:49;;;;;;;6.75;3.28;;;;;;;-143.48;99.20;118439.88;5074625;28;20066;-65
2023/02/05 05:02:15;;;;;;;5.60;3.20;;;;;;;-143.48;98.83;118439.88;5056656;28;20115;-65
2023/02/05 05:04:41;;;;;;;7.32;3.17;;;;;;;-143.48;99.09;118439.88;5074474;28;20031;-66
2023/02/05 05:07:08;;;;;;;5.15;2.53;;;;;;;-143.48;99.07;118439.88;5074552;28;20055;-65
2023/02/05 05:09:36;;;;;;;3.97;2.70;;;;;;;-143.48;99.81;118439.88;5074512;28;20024;-66
2023/02/05 05:12:01;;;;;;;5.97;2.53;;;;;;;-143.48;99.68;118439.88;5056447;28;20028;-66
2023/02/05 05:14:27;;;;;;;9.48;3.15;;;;;;;-143.48;99.42;118439.88;5074348;28;20047;-66
2023/02/05 05:16:52;;;;;;;8.75;2.25;;;;;;;-143.48;99.04;118439.88;5056443;28;20024;-66
2023/02/05 05:19:17;;;;;;;8.40;2.42;;;;;;;-143.48;99.07;118439.88;5074195;28;20028;-66
2023/02/05 05:21:43;;;;;;;12.30;2.00;;;;;;;-143.48;98.14;118439.88;5056359;28;20051;-66
2023/02/05 05:24:08;;;;;;;15.57;2.13;;;;;;;-143.48;97.34;118439.88;5074009;28;20021;-65
2023/02/05 05:26:34;;;;;;;14.27;1.98;;;;;;;-143.48;96.80;118439.88;5074099;28;20051;-65
2023/02/05 05:28:59;;;;;;;11.70;2.08;;;;;;;-143.48;97.50;118439.88;5074131;28;20024;-66
2023/02/05 05:31:25;;;;;;;11.43;2.10;;;;;;;-143.48;97.85;118439.88;5073966;28;20064;-67
2023/02/05 05:33:50;;;;;;;16.25;1.80;;;;;;;-143.48;98.22;118439.88;5073950;28;20048;-65
2023/02/05 05:36:16;;;;;;;10.95;1.75;;;;;;;-143.48;97.33;118439.88;5073911;28;20021;-65
2023/02/05 05:38:42;;;;;;;12.30;1.50;;;;;;;-143.48;96.65;118439.88;5073890;28;20066;-64
2023/02/05 05:44:06;;;;;;;17.95;1.65;;;;;;;-143.48;93.97;118439.88;5073767;28;20040;-65
2023/02/05 05:46:32;;;;;;;10.38;1.35;;;;;;;-143.48;92.21;118439.88;5073693;28;20024;-64
2023/02/05 05:48:59;;;;;;;8.60;1.30;;;;;;;-143.48;91.39;118439.88;5073744;28;20024;-64
2023/02/05 05:51:26;;;;;;;12.60;1.95;;;;;;;-143.48;91.49;118439.88;5073643;28;20028;-63
2023/02/05 05:53:52;;;;;;;16.20;1.85;;;;;;;-143.48;91.65;118439.88;5073486;28;20048;-64
2023/02/05 05:56:18;;;;;;;14.25;1.50;;;;;;;-143.48;91.41;118439.88;5073595;28;20073;-64
2023/02/05 05:58:44;;;;;;;13.85;1.50;;;;;;;-143.48;90.64;118439.88;5073608;28;20431;-65
2023/02/05 06:01:11;;;;;;;14.30;1.42;;;;;;;-143.48;90.66;118439.88;5073661;28;20064;-66
2023/02/05 06:03:36;;;;;;;15.10;1.58;;;;;;;-143.48;90.13;118439.88;5073443;28;20031;-65
2023/02/05 06:06:04;;;;;;;12.90;1.77;;;;;;;-143.48;89.70;118439.88;5055517;28;20488;-65
2023/02/05 06:08:29;;;;;;;6.43;1.30;;;;;;;-143.48;89.00;118439.88;5073262;28;20029;-64
2023/02/05 06:10:55;;;;;;;12.43;1.33;;;;;;;-143.48;89.95;118439.88;5054952;28;20365;-66
2023/02/05 06:13:20;;;;;;;9.93;1.35;;;;;;;-143.48;89.20;118439.88;5055492;28;20395;-65
2023/02/05 06:15:47;;;;;;;12.63;1.55;;;;;;;-143.48;88.88;118439.88;5073330;28;20025;-64
2023/02/05 06:18:13;;;;;;;9.40;1.40;;;;;;;-143.48;88.44;118439.88;5073265;28;20052;-66
2023/02/05 06:20:38;;;;;;;10.27;1.38;;;;;;;-143.48;88.01;118439.88;5073122;28;20063;-65
2023/02/05 06:23:04;;;;;;;12.93;2.30;;;;;;;-143.48;88.23;118439.88;5055206;28;20024;-64
2023/02/05 06:25:29;;;;;;;11.60;1.75;;;;;;;-143.48;88.52;118439.88;5055244;28;20028;-64
2023/02/05 06:27:54;;;;;;;13.57;1.52;;;;;;;-143.48;88.76;118439.88;5055269;28;20120;-64
2023/02/05 06:30:20;;;;;;;7.93;1.27;;;;;;;-143.48;88.82;118439.88;5073169;28;20016;-65
2023/02/05 06:32:45;;;;;;;6.88;1.40;;;;;;;-143.48;88.92;118439.88;5073347;28;20017;-64
2023/02/05 06:35:10;;;;;;;15.98;1.60;;;;;;;-143.48;88.11;118439.88;5073129;28;20029;-65
2023/02/05 06:37:36;;;;;;;12.98;1.48;;;;;;;-143.48;88.40;118439.88;5072849;28;20028;-65
2023/02/05 06:40:01;;;;;;;9.38;2.40;;;;;;;-143.48;88.12;118439.88;5071912;28;20115;-65
2023/02/05 06:42:27;;;;;;;16.17;1.67;;;;;;;-143.48;89.08;118439.88;5055050;28;20038;-65
2023/02/05 06:44:52;;;;;;;11.48;2.13;;;;;;;-143.48;89.85;118439.88;5072905;28;20017;-65
2023/02/05 06:47:17;;;;;;;12.20;1.90;;;;;;;-143.48;89.73;118439.88;5073006;28;20027;-65
2023/02/05 06:49:43;;;;;;;14.43;2.00;;;;;;;-143.48;89.78;118439.88;5055048;28;20579;-65
2023/02/05 06:52:08;;;;;;;10.60;1.33;;;;;;;-143.48;89.60;118439.88;5055108;28;20181;-65
2023/02/05 06:54:33;;;;;;;13.73;1.77;;;;;;;-143.48;89.38;118439.88;5054955;28;20070;-65
2023/02/05 06:56:59;;;;;;;12.52;2.08;;;;;;;-143.48;90.16;118439.88;5073118;28;20040;-65
2023/02/05 06:59:24;;;;;;;22.00;2.97;;;;;;;-143.48;89.77;118439.88;5072733;28;20020;-65
2023/02/05 07:01:50;;;;;;;13.85;2.33;;;;;;;-143.48;89.36;118439.88;5054942;28;20032;-65
2023/02/05 07:04:15;;;;;;;17.27;2.75;;;;;;;-143.48;89.99;118439.88;5073162;28;20031;-65
2023/02/05 07:06:40;;;;;;;21.50;3.60;;;;;;;-143.48;89.93;118439.88;5072569;28;20029;-66
2023/02/05 07:09:06;;;;;;;16.55;2.55;;;;;;;-143.48;89.96;118439.88;5071364;28;20166;-67
2023/02/05 07:11:31;;;;;;;21.15;3.03;;;;;;;-143.48;89.44;118439.88;5054791;28;20550;-65
2023/02/05 07:14:00;;;;;;;13.93;2.10;;;;;;;-143.48;89.78;118439.88;5073296;28;20036;-65
2023/02/05 07:16:26;;;;;;;16.58;1.92;;;;;;;-143.48;90.10;118439.88;5073276;28;20031;-66
2023/02/05 07:18:51;;;;;;;17.17;1.88;;;;;;;-143.48;89.65;118439.88;5073211;28;20111;-67
2023/02/05 07:21:17;;;;;;;20.50;2.50;;;;;;;-143.48;89.49;118439.88;5073057;28;20399;-65
2023/02/05 07:23:43;;;;;;;16.13;1.95;;;;;;;-143.48;90.00;118439.88;5058752;28;20024;-66
2023/02/05 07:26:14;;;;;;;12.57;1.92;;;;;;;-143.48;89.98;118439.88;5076662;28;20411;-66
2023/02/05 07:28:40;;;;;;;19.00;2.40;;;;;;;-143.48;89.13;118439.88;5075873;28;20166;-66
2023/02/05 07:31:10;;;;;;;20.45;2.38;;;;;;;-143.48;88.22;118439.88;5076037;28;20020;-65
2023/02/05 07:33:36;;;;;;;15.15;1.95;;;;;;;-143.48;88.24;118439.88;5058510;28;20126;-65
2023/02/05 07:36:07;;;;;;;19.27;2.55;;;;;;;-143.48;88.01;118439.88;5076325;28;20467;-65
2023/02/05 07:38:34;;;;;;;16.73;2.08;;;;;;;-143.48;88.56;118439.88;5080169;28;20036;-67
2023/02/05 07:41:02;;;;;;;17.92;2.63;;;;;;;-143.48;87.68;118439.88;5086007;28;20032;-63
2023/02/05 07:43:28;;;;;;;23.38;2.42;;;;;;;-143.48;86.66;118439.88;5076188;28;20226;-66
2023/02/05 07:46:01;;;;;;;16.98;2.40;;;;;;;-143.48;86.35;118439.88;5059781;28;20480;-64
2023/02/05 07:48:26;;;;;;;;;;;;;;;-143.48;86.05;118439.88;5060657;28;20033;-66
2023/02/05 07:50:51;;;;;;;20.40;2.88;;;;;;;-143.48;86.41;118439.88;5077210;28;19909;-67
2023/02/05 07:53:17;;;;;;;11.77;1.92;;;;;;;-143.48;85.13;118439.88;5066517;28;20033;-73
2023/02/05 07:55:43;;;;;;;15.02;2.10;;;;;;;-143.48;84.76;118439.88;5095988;28;20024;-72
2023/02/05 07:58:08;;;;;;;17.25;2.72;;;;;;;-143.48;85.07;118439.88;5097095;28;20084;-72
2023/02/05 08:00:33;;;;;;;16.20;2.42;;;;;;;-143.48;85.69;118439.88;5073734;28;20507;-66
2023/02/05 08:02:59;;;;;;;14.25;2.50;;;;;;;-143.48;84.74;118439.88;5082341;28;20029;-68
2023/02/05 08:05:25;;;;;;;19.63;2.95;;;;;;;-143.48;84.19;118439.88;5071969;28;20034;-67
2023/02/05 08:07:50;;;;;;;26.23;3.10;;;;;;;-143.48;84.83;118439.88;5090186;28;20084;-68
2023/02/05 08:10:15;;;;;;;21.90;3.22;;;;;;;-143.48;85.52;118439.88;5073315;28;20089;-66
2023/02/05 08:12:41;;;;;;;22.20;2.88;;;;;;;-143.48;85.10;118439.88;5073302;28;20025;-68
2023/02/05 08:15:07;;;;;;;20.45;2.63;;;;;;;-143.48;85.15;118439.88;5073172;28;20039;-65
2023/02/05 08:17:32;;;;;;;27.90;4.43;;;;;;;-143.48;85.24;118439.88;5073299;28;20017;-65
2023/02/05 08:20:02;;;;;;;23.05;2.97;;;;;;;-143.48;85.06;118439.88;5072461;28;20040;-66
2023/02/05 08:22:27;;;;;;;24.80;3.63;;;;;;;-143.48;85.54;118439.88;5084217;28;20031;-65
2023/02/05 08:24:52;;;;;;;28.33;3.80;;;;;;;-143.48;85.01;118439.88;5080040;28;20115;-65
2023/02/05 08:27:18;;;;;;;31.27;4.00;;;;;;;-143.48;84.42;118439.88;5078444;28;20378;-69
2023/02/05 08:29:47;;;;;;;27.75;3.60;;;;;;;-143.48;84.95;118439.88;5060516;28;20012;-64
2023/02/05 08:32:12;;;;;;;25.38;2.97;;;;;;;-143.48;84.86;118439.88;5079602;28;20024;-65
2023/02/05 08:34:38;;;;;;;38.17;4.88;;;;;;;-143.48;84.89;118439.88;5062586;28;20494;-66
2023/02/05 08:37:03;;;;;;;22.65;3.00;;;;;;;-143.48;83.99;118439.88;5072253;28;20594;-65
2023/02/05 08:39:28;;;;;;;23.45;3.00;;;;;;;-143.48;83.62;118439.88;5068403;28;20027;-65
2023/02/05 08:41:54;;;;;;;30.95;4.47;;;;;;;-143.48;84.31;118439.88;5079256;28;20111;-64
2023/02/05 08:44:19;;;;;;;28.27;3.45;;;;;;;-143.48;84.32;118439.88;5080089;28;20405;-65
2023/02/05 08:46:44;;;;;;;38.15;4.95;;;;;;;-143.48;82.41;118439.88;5060463;28;20402;-65
2023/02/05 08:49:09;;;;;;;35.35;4.78;;;;;;;-143.48;80.10;118439.88;5075446;28;20028;-65
2023/02/05 08:51:35;;;;;;;35.58;4.53;;;;;;;-143.48;79.80;118439.88;5058691;28;20124;-65
2023/02/05 08:54:00;;;;;;;26.85;4.13;;;;;;;-143.48;79.67;118439.88;5057936;28;20036;-66
2023/02/05 08:56:25;;;;;;;30.38;4.50;;;;;;;-143.48;80.47;118439.88;5075622;28;20025;-66
2023/02/05 08:58:51;;;;;;;32.83;4.03;;;;;;;-143.48;80.34;118439.88;5076287;28;20107;-65
2023/02/05 09:01:17;;;;;;;28.15;3.78;;;;;;;-143.48;80.82;118439.88;5075523;28;20087;-63
2023/02/05 09:03:43;;;;;;;27.85;3.63;;;;;;;-143.48;80.50;118439.88;5075147;28;20029;-65
2023/02/05 09:06:11;;;;;;;34.83;3.80;;;;;;;-143.48;79.14;118439.88;5075214;28;20085;-65
2023/02/05 09:08:36;;;;;;;32.40;4.13;;;;;;;-143.48;80.29;118439.88;5077489;28;20020;-64
2023/02/05 09:11:03;;;;;;;32.30;4.45;;;;;;;-143.48;80.90;118439.88;5076493;28;20447;-64
2023/02/05 09:13:28;;;;;;;32.10;4.65;;;;;;;-143.48;79.40;118439.88;5057764;28;20051;-65
2023/02/05 09:15:53;;;;;;;28.02;3.80;;;;;;;-143.48;79.30;118439.88;5075736;28;20040;-65
2023/02/05 09:18:19;;;;;;;32.17;3.80;;;;;;;-143.48;77.46;118439.88;5056886;28;20111;-65
2023/02/05 09:20:48;;;;;;;26.40;3.40;;;;;;;-143.48;77.10;118439.88;5074570;28;20036;-65
2023/02/05 09:23:15;;;;;;;27.05;4.00;;;;;;;-143.48;78.09;118439.88;5056363;28;20074;-65
2023/02/05 09:25:41;;;;;;;27.88;3.72;;;;;;;-143.48;77.19;118439.88;5074184;28;20028;-64
2023/02/05 09:28:09;;;;;;;27.55;4.20;;;;;;;-143.48;77.98;118439.88;5074630;28;20031;-65
2023/02/05 09:30:39;;;;;;;32.15;4.20;;;;;;;-143.48;77.00;118439.88;5074045;28;20027;-65
2023/02/05 09:33:05;;;;;;;29.20;3.63;;;;;;;-143.48;77.98;118439.88;5074338;28;20028;-64
2023/02/05 09:35:31;;;;;;;29.63;4.00;;;;;;;-143.48;77.24;118439.88;5073975;28;20081;-65
2023/02/05 09:37:58;;;;;;;31.33;4.03;;;;;;;-143.48;76.37;118439.88;5055999;28;20035;-65
2023/02/05 09:40:28;;;;;;;27.63;3.72;;;;;;;-143.48;75.50;118439.88;5074149;28;20025;-65
2023/02/05 09:43:00;;;;;;;30.95;4.15;;;;;;;-143.48;75.54;118439.88;5074036;28;20111;-65
2023/02/05 09:45:52;;;;;;;30.25;3.60;;;;;;;-143.48;72.53;118439.88;5055339;28;20028;-65
2023/02/05 09:48:39;;;;;;;31.38;4.30;;;;;;;-143.48;66.73;118439.88;5055867;28;20120;-66
2023/02/05 09:51:09;;;;;;;31.65;3.80;;;;;;;-143.48;71.68;118439.88;5073712;28;20383;-65
2023/02/05 09:53:40;;;;;;;33.33;4.75;;;;;;;-143.48;71.99;118439.88;5073493;28;20076;-65
2023/02/05 09:56:08;;;;;;;29.92;4.28;;;;;;;-143.48;71.33;118439.88;5073551;28;20471;-65
2023/02/05 09:58:40;;;;;;;33.25;3.85;;;;;;;-143.48;71.06;118439.88;5073682;28;20028;-66
2023/02/05 10:01:13;;;;;;;29.50;4.05;;;;;;;-143.48;71.76;118439.88;5055523;28;20035;-65
2023/02/05 10:04:10;;;;;;;32.97;4.22;;;;;;;-143.48;70.44;118439.88;5055597;28;20123;-65
2023/02/05 10:06:50;;;;;;;33.83;4.57;;;;;;;-143.48;71.23;118439.88;5051221;28;20032;-65
2023/02/05 10:09:41;;;;;;;30.55;4.15;;;;;;;-143.48;66.04;118439.88;5072140;28;20539;-66
2023/02/05 10:12:24;;;;;;;35.10;4.97;;;;;;;-143.48;53.03;118439.88;5072675;28;20150;-66
2023/02/05 10:15:20;;;;;;;29.80;4.68;;;;;;;-143.48;59.28;118439.88;5073373;28;20514;-66
2023/02/05 10:18:12;;;;;;;30.00;4.50;;;;;;;-143.48;63.34;118439.88;5073251;28;20036;-65
2023/02/05 10:21:01;;;;;;;33.47;5.53;;;;;;;-143.48;60.85;118439.88;5073215;28;20078;-65
2023/02/05 10:23:36;;;;;;;25.38;4.00;;;;;;;-143.48;54.60;118439.88;5055701;28;20035;-64
2023/02/05 10:26:12;;;;;;;28.85;4.90;;;;;;;-143.48;52.76;118439.88;5073196;28;20060;-65
2023/02/05 10:29:16;;;;;;;26.58;6.40;;;;;;;-143.48;47.12;118439.88;5073096;28;20024;-64
2023/02/05 10:31:47;;;;;;;28.88;5.10;;;;;;;-143.48;52.68;118439.88;5014929;28;20044;-66
2023/02/05 10:34:21;;;;;;;27.67;4.25;;;;;;;-143.48;54.87;118439.88;5072260;28;20032;-65
2023/02/05 10:36:50;;;;;;;34.20;5.15;;;;;;;-143.48;55.44;118439.88;5055397;28;20032;-68
2023/02/05 10:39:18;;;;;;;35.55;5.03;;;;;;;-143.48;59.11;118439.88;5073031;28;20426;-64
2023/02/05 10:41:50;;;;;;;28.42;4.30;;;;;;;-143.48;60.73;118439.88;5073094;28;20547;-67
2023/02/05 10:44:33;;;;;;;29.65;4.53;;;;;;;-143.48;61.63;118439.88;5073103;28;20024;-64
2023/02/05 10:47:15;;;;;;;;;;;;;;;-143.48;62.85;118439.88;5073456;28;20028;-65
2023/02/05 10:49:40;;;;;;;30.10;4.82;;;;;;;-143.48;61.18;118439.88;5055435;28;20259;-65
2023/02/05 10:52:10;;;;;;;27.35;4.15;;;;;;;-143.48;62.51;118439.88;5055241;28;20115;-66
2023/02/05 10:54:37;;;;;;;39.08;4.18;;;;;;;-143.48;63.01;118439.88;5055040;28;20028;-65
2023/02/05 10:57:02;;;;;;;31.52;4.65;;;;;;;-143.48;64.44;118439.88;5057948;28;20395;-65
2023/02/05 10:59:31;;;;;;;32.97;4.60;;;;;;;-143.48;63.62;118439.88;5080656;28;20024;-66
2023/02/05 11:02:01;;;;;;;26.55;4.05;;;;;;;-143.48;61.19;118439.88;5076839;28;20032;-67
2023/02/05 11:04:35;;;;;;;32.25;5.25;;;;;;;-143.48;63.13;118439.88;5076558;28;20017;-66
2023/02/05 11:07:05;;;;;;;35.78;4.32;;;;;;;-143.48;62.26;118439.88;5058805;28;20074;-66
2023/02/05 11:09:32;;;;;;;22.60;3.95;;;;;;;-143.48;59.33;118439.88;5076150;28;20359;-66
2023/02/05 11:12:15;;;;;;;31.73;4.43;;;;;;;-143.48;58.32;118439.88;5076980;28;20029;-67